Time;durP1;ratioP1;P1;durP2;ratioP2;P2;SDS_P1;SDS_P2;PMS_P1;PMS_P2;Temp;Humidity;BMP_temperature;BMP_pressure;BME280_temperature;BME280_humidity;BME280_pressure;Samples;Min_cycle;Max_cycle;Signal;HPM_P1;HPM_P2
2023/03/24 00:01:06;;;;;;;19.60;18.70;;;14.00;99.90;;;;;;5132704;27;20445;-75
2023/03/24 00:03:33;;;;;;;20.60;19.50;;;13.90;99.90;;;;;;5132903;27;20459;-75
2023/03/24 00:06:01;;;;;;;19.63;18.53;;;13.80;99.90;;;;;;5132794;27;20509;-77
2023/03/24 00:08:30;;;;;;;19.73;18.53;;;13.80;99.90;;;;;;5134764;27;20491;-85
2023/03/24 00:11:00;;;;;;;19.90;18.50;;;13.90;99.90;;;;;;5139812;27;20532;-87
2023/03/24 00:13:27;;;;;;;16.77;15.97;;;14.00;99.90;;;;;;5139533;27;20476;-84
2023/03/24 00:15:54;;;;;;;16.00;15.07;;;14.00;99.90;;;;;;5134064;27;20452;-84
2023/03/24 00:18:24;;;;;;;14.50;13.70;;;14.10;99.90;;;;;;5133888;27;20448;-85
2023/03/24 00:20:57;;;;;;;14.50;13.70;;;14.20;99.90;;;;;;5133563;27;20448;-83
2023/03/24 00:23:24;;;;;;;14.00;13.20;;;14.40;99.90;;;;;;5133571;27;20471;-82
2023/03/24 00:26:01;;;;;;;15.37;14.40;;;14.50;99.90;;;;;;5133797;27;20452;-81
2023/03/24 00:28:28;;;;;;;14.00;13.30;;;14.50;99.90;;;;;;5133241;27;20454;-79
2023/03/24 00:30:54;;;;;;;14.60;13.90;;;14.50;99.90;;;;;;5133600;27;20452;-78
2023/03/24 00:33:24;;;;;;;14.67;13.67;;;14.50;99.90;;;;;;5132887;27;20495;-79
2023/03/24 00:35:50;;;;;;;15.77;14.67;;;14.40;99.90;;;;;;5133085;27;20480;-79
2023/03/24 00:38:18;;;;;;;15.77;14.67;;;14.40;99.90;;;;;;5133196;27;20444;-78
2023/03/24 00:40:47;;;;;;;15.23;14.07;;;14.40;99.90;;;;;;5132842;27;20451;-79
2023/03/24 00:43:14;;;;;;;14.90;13.90;;;14.40;99.90;;;;;;5133337;27;20444;-79
2023/03/24 00:45:45;;;;;;;15.90;14.97;;;14.30;99.90;;;;;;5134092;27;20452;-84
2023/03/24 00:48:11;;;;;;;15.57;14.67;;;14.40;99.90;;;;;;5133233;27;20448;-80
2023/03/24 00:50:43;;;;;;;14.43;13.63;;;14.40;99.90;;;;;;5132665;27;20448;-80
2023/03/24 00:53:10;;;;;;;15.03;13.93;;;14.40;99.90;;;;;;5132666;27;20503;-81
2023/03/24 00:55:37;;;;;;;14.70;13.70;;;14.50;99.90;;;;;;5133079;27;20864;-81
2023/03/24 00:58:04;;;;;;;15.03;14.03;;;14.50;99.90;;;;;;5132856;27;20520;-82
2023/03/24 01:00:31;;;;;;;14.83;14.10;;;14.50;99.90;;;;;;5132623;27;20455;-81
2023/03/24 01:02:58;;;;;;;15.03;14.23;;;14.50;99.90;;;;;;5132819;27;20482;-82
2023/03/24 01:05:26;;;;;;;14.67;13.67;;;14.40;99.90;;;;;;5132746;27;20866;-81
2023/03/24 01:07:56;;;;;;;15.43;14.47;;;14.40;99.90;;;;;;5132521;27;20448;-83
2023/03/24 01:10:25;;;;;;;15.77;14.63;;;14.30;99.90;;;;;;5132957;27;20943;-83
2023/03/24 01:12:52;;;;;;;15.30;14.40;;;14.20;99.90;;;;;;5132561;27;20448;-83
2023/03/24 01:15:20;;;;;;;15.90;14.70;;;14.20;99.90;;;;;;5132553;27;20448;-83
2023/03/24 01:17:47;;;;;;;16.67;15.37;;;14.20;99.90;;;;;;5132539;27;20950;-83
2023/03/24 01:20:15;;;;;;;14.10;13.30;;;14.20;99.90;;;;;;5132502;27;20452;-82
2023/03/24 01:22:43;;;;;;;14.87;13.77;;;14.20;99.90;;;;;;5132044;27;20516;-82
2023/03/24 01:25:15;;;;;;;14.53;13.63;;;14.20;99.90;;;;;;5132322;27;20813;-82
2023/03/24 01:27:42;;;;;;;12.03;11.53;;;14.20;99.90;;;;;;5132370;27;20444;-82
2023/03/24 01:30:11;;;;;;;12.53;11.83;;;14.20;99.90;;;;;;5132332;27;20456;-81
2023/03/24 01:32:38;;;;;;;12.20;11.70;;;14.30;99.90;;;;;;5131499;27;20484;-81
2023/03/24 01:35:05;;;;;;;12.60;11.60;;;14.30;99.90;;;;;;5131988;27;20529;-81
2023/03/24 01:37:32;;;;;;;12.00;11.40;;;14.30;99.90;;;;;;5132103;27;20448;-81
2023/03/24 01:39:59;;;;;;;13.10;12.50;;;14.30;99.90;;;;;;5131845;27;20490;-82
2023/03/24 01:42:28;;;;;;;12.80;12.00;;;14.30;99.90;;;;;;5131971;27;20444;-82
2023/03/24 01:44:57;;;;;;;11.60;11.10;;;14.30;99.90;;;;;;5131797;27;20445;-82
2023/03/24 01:47:24;;;;;;;12.43;11.73;;;14.30;99.90;;;;;;5131883;27;20451;-81
2023/03/24 01:49:54;;;;;;;12.37;11.67;;;14.40;99.90;;;;;;5131923;27;20448;-80
2023/03/24 01:52:24;;;;;;;12.53;11.80;;;14.40;99.90;;;;;;5131833;27;20448;-80
2023/03/24 01:54:55;;;;;;;12.23;11.70;;;14.30;99.90;;;;;;5131804;27;20972;-80
2023/03/24 01:57:25;;;;;;;12.10;11.50;;;14.20;99.90;;;;;;5131860;27;20452;-79
2023/03/24 01:59:55;;;;;;;11.87;11.37;;;14.20;99.90;;;;;;5131692;27;20543;-80
2023/03/24 02:02:22;;;;;;;13.03;12.43;;;14.10;99.90;;;;;;5131461;27;20444;-80
2023/03/24 02:04:53;;;;;;;12.83;12.13;;;14.00;99.90;;;;;;5131471;27;20505;-79
2023/03/24 02:07:31;;;;;;;13.33;12.63;;;13.90;99.90;;;;;;5131438;27;20710;-78
2023/03/24 02:09:58;;;;;;;12.03;11.53;;;13.90;99.90;;;;;;5131450;27;20447;-78
2023/03/24 02:12:25;;;;;;;13.00;12.40;;;13.90;99.90;;;;;;5131403;27;20471;-78
2023/03/24 02:14:53;;;;;;;11.73;11.23;;;13.90;99.90;;;;;;5131284;27;20480;-78
2023/03/24 02:17:42;;;;;;;12.90;12.20;;;13.90;99.90;;;;;;5131321;27;20448;-78
2023/03/24 02:20:32;;;;;;;13.47;12.67;;;13.90;99.90;;;;;;5131315;27;20448;-79
2023/03/24 02:23:39;;;;;;;13.20;12.57;;;13.90;99.90;;;;;;5130779;27;20483;-78
2023/03/24 02:26:38;;;;;;;12.63;12.03;;;13.90;99.90;;;;;;5131347;27;20984;-78
2023/03/24 02:29:27;;;;;;;14.77;14.00;;;13.90;99.90;;;;;;5131417;27;20484;-78
2023/03/24 02:32:24;;;;;;;15.63;14.53;;;13.80;99.90;;;;;;5096930;27;20484;-78
2023/03/24 02:35:09;;;;;;;14.73;13.73;;;13.90;99.90;;;;;;5131179;27;20491;-78
2023/03/24 02:38:08;;;;;;;14.30;13.20;;;13.90;99.90;;;;;;5131335;27;20508;-76
2023/03/24 02:40:40;;;;;;;14.63;13.77;;;13.90;99.90;;;;;;5131137;27;20817;-77
2023/03/24 02:43:19;;;;;;;15.40;14.40;;;13.90;99.90;;;;;;5131849;27;20444;-77
2023/03/24 02:46:12;;;;;;;15.23;14.33;;;13.80;99.90;;;;;;5135358;27;20450;-77
2023/03/24 02:48:46;;;;;;;14.33;13.53;;;13.80;99.90;;;;;;5135680;27;20452;-77
2023/03/24 02:51:20;;;;;;;13.90;13.10;;;13.70;99.90;;;;;;5135795;27;20570;-78
2023/03/24 02:53:57;;;;;;;15.30;14.10;;;13.70;99.90;;;;;;5135227;27;20540;-77
2023/03/24 02:56:32;;;;;;;14.53;13.57;;;13.80;99.90;;;;;;5135145;27;20943;-77
2023/03/24 02:59:02;;;;;;;15.50;14.50;;;13.90;99.90;;;;;;5134983;27;20448;-77
2023/03/24 03:01:34;;;;;;;16.73;15.30;;;13.90;99.90;;;;;;5135330;27;20489;-77
2023/03/24 03:04:05;;;;;;;16.73;15.53;;;14.00;99.90;;;;;;5135190;27;20455;-77
2023/03/24 03:06:36;;;;;;;17.30;16.10;;;14.10;99.90;;;;;;5135168;27;20497;-77
2023/03/24 03:09:08;;;;;;;16.40;15.00;;;14.20;99.90;;;;;;5135227;27;20472;-77
2023/03/24 03:11:38;;;;;;;15.90;14.70;;;14.30;99.90;;;;;;5135025;27;20447;-81
2023/03/24 03:14:08;;;;;;;15.37;14.30;;;14.30;99.90;;;;;;5134743;27;20519;-81
2023/03/24 03:16:39;;;;;;;15.90;14.80;;;14.40;99.90;;;;;;5135206;27;20455;-81
2023/03/24 03:19:11;;;;;;;15.77;14.10;;;14.50;99.90;;;;;;5135239;27;20464;-81
2023/03/24 03:21:41;;;;;;;15.30;14.30;;;14.60;99.90;;;;;;5134828;27;20456;-81
2023/03/24 03:24:11;;;;;;;16.13;15.13;;;14.60;99.90;;;;;;5134679;27;20467;-82
2023/03/24 03:26:40;;;;;;;16.87;15.20;;;14.60;99.90;;;;;;5134873;27;20448;-82
2023/03/24 03:29:11;;;;;;;16.43;14.97;;;14.60;99.90;;;;;;5134873;27;20448;-79
2023/03/24 03:31:44;;;;;;;17.67;16.10;;;14.60;99.90;;;;;;5134251;27;20480;-80
2023/03/24 03:34:17;;;;;;;18.60;16.80;;;14.60;99.90;;;;;;5134446;27;20510;-81
2023/03/24 03:36:50;;;;;;;17.23;16.03;;;14.60;99.90;;;;;;5134587;27;20461;-79
2023/03/24 03:39:23;;;;;;;14.00;13.20;;;14.60;99.90;;;;;;5134410;27;20452;-80
2023/03/24 03:41:52;;;;;;;15.70;14.50;;;14.60;99.90;;;;;;5134214;27;20696;-79
2023/03/24 03:44:19;;;;;;;14.60;13.80;;;14.70;99.90;;;;;;5134395;27;20445;-79
2023/03/24 03:46:45;;;;;;;13.70;12.90;;;14.80;99.90;;;;;;5134288;27;20539;-79
2023/03/24 03:49:12;;;;;;;15.90;14.80;;;14.90;99.90;;;;;;5133874;27;20493;-79
2023/03/24 03:51:39;;;;;;;14.47;13.53;;;14.90;99.90;;;;;;5134155;27;20449;-79
2023/03/24 03:54:09;;;;;;;15.87;14.60;;;14.70;99.90;;;;;;5133705;27;21059;-79
2023/03/24 03:56:37;;;;;;;18.40;16.57;;;14.60;99.90;;;;;;5134216;27;20547;-80
2023/03/24 03:59:07;;;;;;;16.67;15.53;;;14.50;99.90;;;;;;5133857;27;20821;-80
2023/03/24 04:01:36;;;;;;;16.53;15.30;;;14.50;99.90;;;;;;5134099;27;20448;-80
2023/03/24 04:04:26;;;;;;;16.50;15.30;;;14.50;99.90;;;;;;5134174;27;20532;-80
2023/03/24 04:07:06;;;;;;;16.50;15.40;;;14.50;99.90;;;;;;5133703;27;20807;-81
2023/03/24 04:09:40;;;;;;;19.93;17.97;;;14.40;99.90;;;;;;5133851;27;20452;-81
2023/03/24 04:12:27;;;;;;;18.53;17.10;;;14.40;99.90;;;;;;5133872;27;20455;-81
2023/03/24 04:15:24;;;;;;;19.57;17.77;;;14.40;99.90;;;;;;5133675;27;21126;-81
2023/03/24 04:18:07;;;;;;;18.33;16.70;;;14.30;99.90;;;;;;5133711;27;20448;-79
2023/03/24 04:20:45;;;;;;;19.30;17.53;;;14.30;99.90;;;;;;5135323;27;20475;-82
2023/03/24 04:23:25;;;;;;;19.00;17.43;;;14.20;99.90;;;;;;5145870;27;20456;-81
2023/03/24 04:26:00;;;;;;;19.10;17.50;;;14.30;99.90;;;;;;5155626;27;20432;-80
2023/03/24 04:28:36;;;;;;;19.73;18.30;;;14.20;99.90;;;;;;5154914;27;20477;-79
2023/03/24 04:31:13;;;;;;;20.17;18.30;;;14.30;99.90;;;;;;5151104;27;20452;-83
2023/03/24 04:33:49;;;;;;;18.83;17.63;;;14.30;99.90;;;;;;5139023;27;20493;-85
2023/03/24 04:36:22;;;;;;;18.67;17.37;;;14.30;99.90;;;;;;5134146;27;20484;-82
2023/03/24 04:38:53;;;;;;;14.93;14.03;;;14.50;99.90;;;;;;5133356;27;20447;-82
2023/03/24 04:41:24;;;;;;;13.83;13.13;;;14.60;99.90;;;;;;5133328;27;20452;-82
2023/03/24 04:43:52;;;;;;;13.10;12.30;;;14.70;99.90;;;;;;5133179;27;20449;-84
2023/03/24 04:46:21;;;;;;;14.53;13.33;;;14.90;99.90;;;;;;5133285;27;20469;-81
2023/03/24 04:48:49;;;;;;;17.70;16.00;;;15.00;99.90;;;;;;5133549;27;20497;-83
2023/03/24 04:51:17;;;;;;;18.40;17.00;;;14.90;99.90;;;;;;5133192;27;20440;-82
2023/03/24 04:53:44;;;;;;;16.97;15.87;;;14.60;99.90;;;;;;5132941;27;20444;-81
2023/03/24 04:56:27;;;;;;;19.20;17.60;;;14.60;99.90;;;;;;5133242;27;20476;-81
2023/03/24 04:58:53;;;;;;;18.63;16.93;;;14.60;99.90;;;;;;5132588;27;20601;-81
2023/03/24 05:01:21;;;;;;;17.87;16.57;;;14.50;99.90;;;;;;5132914;27;20440;-81
2023/03/24 05:03:48;;;;;;;16.73;15.20;;;14.40;99.90;;;;;;5132634;27;20940;-81
2023/03/24 05:06:15;;;;;;;14.70;13.70;;;14.60;99.90;;;;;;5131461;27;20996;-79
2023/03/24 05:08:42;;;;;;;13.03;12.33;;;14.70;99.90;;;;;;5132395;27;20448;-80
2023/03/24 05:11:09;;;;;;;11.50;11.00;;;15.10;99.90;;;;;;5132629;27;20448;-80
2023/03/24 05:13:35;;;;;;;11.57;10.97;;;15.50;99.90;;;;;;5132346;27;20646;-80
2023/03/24 05:16:02;;;;;;;12.00;11.40;;;15.80;99.90;;;;;;5132519;27;20484;-79
2023/03/24 05:18:30;;;;;;;11.50;11.10;;;16.00;99.90;;;;;;5132314;27;20440;-79
2023/03/24 05:20:57;;;;;;;11.30;10.90;;;16.10;99.90;;;;;;5131929;27;20987;-80
2023/03/24 05:23:23;;;;;;;11.50;11.00;;;16.20;99.90;;;;;;5132041;27;20472;-80
2023/03/24 05:25:50;;;;;;;12.10;11.60;;;16.30;99.90;;;;;;5132308;27;20452;-80
2023/03/24 05:28:17;;;;;;;12.50;12.00;;;16.30;99.90;;;;;;5132155;27;20501;-82
2023/03/24 05:30:43;;;;;;;10.97;10.53;;;16.50;99.90;;;;;;5132306;27;20445;-80
2023/03/24 05:33:10;;;;;;;11.60;11.20;;;16.50;99.90;;;;;;5131692;27;20476;-75
2023/03/24 05:35:38;;;;;;;12.40;11.97;;;16.50;99.90;;;;;;5132000;27;20553;-77
2023/03/24 05:38:05;;;;;;;12.47;11.97;;;16.40;99.90;;;;;;5131938;27;20998;-75
2023/03/24 05:40:31;;;;;;;12.50;12.00;;;16.30;99.90;;;;;;5131664;27;20452;-72
2023/03/24 05:42:58;;;;;;;13.20;12.70;;;16.00;99.90;;;;;;5132266;27;20444;-71
2023/03/24 05:45:25;;;;;;;13.90;13.30;;;15.80;99.90;;;;;;5131917;27;20456;-73
2023/03/24 05:47:51;;;;;;;15.10;14.50;;;15.50;99.90;;;;;;5131936;27;20544;-70
2023/03/24 05:50:18;;;;;;;14.00;13.50;;;15.30;99.90;;;;;;5131884;27;20452;-70
2023/03/24 05:52:46;;;;;;;14.17;13.67;;;15.10;99.90;;;;;;5131695;27;20444;-73
2023/03/24 05:55:14;;;;;;;13.63;13.13;;;15.00;99.90;;;;;;5131315;27;20468;-72
2023/03/24 05:57:42;;;;;;;15.23;14.43;;;14.90;99.90;;;;;;5131243;27;20490;-72
2023/03/24 06:00:15;;;;;;;14.50;14.00;;;14.90;99.90;;;;;;5131172;27;20540;-72
2023/03/24 06:02:42;;;;;;;15.30;14.70;;;14.80;99.90;;;;;;5131490;27;20443;-72
2023/03/24 06:05:10;;;;;;;16.90;16.10;;;14.70;99.90;;;;;;5131150;27;20455;-71
2023/03/24 06:07:37;;;;;;;17.30;16.60;;;14.60;99.90;;;;;;5130961;27;21206;-71
2023/03/24 06:10:06;;;;;;;17.63;16.93;;;14.60;99.90;;;;;;5130851;27;20804;-71
2023/03/24 06:12:33;;;;;;;17.47;16.77;;;14.50;99.90;;;;;;5128173;27;20848;-73
2023/03/24 06:15:00;;;;;;;17.93;17.23;;;14.40;99.90;;;;;;5130819;27;20567;-72
2023/03/24 06:17:29;;;;;;;17.53;16.83;;;14.40;99.90;;;;;;5130613;27;20928;-74
2023/03/24 06:20:01;;;;;;;17.70;16.90;;;14.40;99.90;;;;;;5131128;27;20782;-78
2023/03/24 06:22:29;;;;;;;16.77;16.03;;;14.40;99.90;;;;;;5130886;27;20454;-76
2023/03/24 06:24:57;;;;;;;16.40;15.80;;;14.30;99.90;;;;;;5131299;27;20429;-75
2023/03/24 06:27:29;;;;;;;16.10;15.50;;;14.40;99.90;;;;;;5131449;27;20449;-78
2023/03/24 06:29:56;;;;;;;15.27;14.67;;;14.40;99.90;;;;;;5128899;28;20449;-77
2023/03/24 06:32:22;;;;;;;14.40;13.70;;;14.40;99.90;;;;;;5130503;27;20472;-75
2023/03/24 06:34:49;;;;;;;14.63;13.93;;;14.40;99.90;;;;;;5131405;27;21032;-77
2023/03/24 06:37:16;;;;;;;14.30;13.70;;;14.40;99.90;;;;;;5131359;27;20448;-76
2023/03/24 06:39:43;;;;;;;13.77;13.07;;;14.50;99.90;;;;;;5131360;27;20452;-76
2023/03/24 06:42:09;;;;;;;14.23;13.53;;;14.60;99.90;;;;;;5131226;27;20448;-75
2023/03/24 06:44:37;;;;;;;16.40;14.17;;;14.70;99.90;;;;;;5131772;27;20449;-78
2023/03/24 06:47:04;;;;;;;14.47;13.27;;;14.80;99.90;;;;;;5131599;27;20517;-79
2023/03/24 06:49:33;;;;;;;14.27;13.47;;;14.80;99.90;;;;;;5131310;27;20444;-73
2023/03/24 06:52:00;;;;;;;14.60;13.90;;;14.80;99.90;;;;;;5131242;27;20821;-74
2023/03/24 06:54:28;;;;;;;15.20;14.37;;;14.80;99.90;;;;;;5131035;27;20445;-73
2023/03/24 06:56:55;;;;;;;14.50;13.90;;;14.80;99.90;;;;;;5131125;27;20583;-72
2023/03/24 06:59:23;;;;;;;14.43;13.63;;;14.80;99.90;;;;;;5131141;27;20449;-72
2023/03/24 07:01:52;;;;;;;14.57;13.87;;;14.80;99.90;;;;;;5131145;27;20539;-72
2023/03/24 07:04:18;;;;;;;13.20;12.50;;;14.80;99.90;;;;;;5131092;27;20444;-72
2023/03/24 07:06:46;;;;;;;14.00;13.30;;;14.80;99.90;;;;;;5130828;27;21001;-79
2023/03/24 07:09:13;;;;;;;15.00;14.23;;;14.80;99.90;;;;;;5131114;27;20852;-80
2023/03/24 07:11:40;;;;;;;15.90;14.70;;;14.70;99.90;;;;;;5131299;27;21006;-80
2023/03/24 07:14:07;;;;;;;15.37;14.47;;;14.70;99.90;;;;;;5136815;27;20512;-80
2023/03/24 07:16:33;;;;;;;15.10;14.33;;;14.70;99.90;;;;;;5135175;27;20523;-74
2023/03/24 07:19:01;;;;;;;15.43;14.70;;;14.60;99.90;;;;;;5131077;27;20452;-74
2023/03/24 07:21:28;;;;;;;19.73;18.83;;;14.60;99.90;;;;;;5130917;27;20907;-75
2023/03/24 07:23:55;;;;;;;23.50;22.20;;;14.50;99.90;;;;;;5131050;27;20465;-74
2023/03/24 07:26:21;;;;;;;32.97;31.00;;;14.30;99.90;;;;;;5133336;27;20459;-75
2023/03/24 07:28:49;;;;;;;33.73;31.70;;;14.10;99.90;;;;;;5133197;27;20521;-76
2023/03/24 07:31:16;;;;;;;36.53;33.97;;;13.90;99.90;;;;;;5135749;27;20849;-75
2023/03/24 07:33:42;;;;;;;35.03;32.93;;;13.80;99.90;;;;;;5135791;27;20444;-76
2023/03/24 07:36:11;;;;;;;34.13;32.23;;;13.80;99.90;;;;;;5135083;27;20479;-75
2023/03/24 07:38:37;;;;;;;33.30;31.10;;;13.70;99.90;;;;;;5134357;27;20459;-72
2023/03/24 07:41:04;;;;;;;32.77;30.87;;;13.60;99.90;;;;;;5134541;27;20497;-72
2023/03/24 07:43:31;;;;;;;35.23;33.23;;;13.60;99.90;;;;;;5134422;27;20473;-74
2023/03/24 07:45:58;;;;;;;35.53;32.90;;;13.50;99.90;;;;;;5134356;27;20451;-73
2023/03/24 07:48:24;;;;;;;35.03;32.80;;;13.50;99.90;;;;;;5134200;27;20448;-74
2023/03/24 07:50:53;;;;;;;33.40;31.40;;;13.50;99.90;;;;;;5134054;27;20630;-74
2023/03/24 07:53:21;;;;;;;34.43;32.33;;;13.50;99.90;;;;;;5133881;27;20501;-74
2023/03/24 07:55:48;;;;;;;35.53;33.47;;;13.40;99.90;;;;;;5133578;27;20476;-74
2023/03/24 07:58:14;;;;;;;34.73;32.73;;;13.50;99.90;;;;;;5133936;27;20451;-73
2023/03/24 08:00:41;;;;;;;34.93;32.93;;;13.40;99.90;;;;;;5133613;27;20949;-74
2023/03/24 08:03:13;;;;;;;35.07;32.87;;;13.50;99.90;;;;;;5133814;27;20455;-75
2023/03/24 08:05:40;;;;;;;36.50;34.00;;;13.40;99.90;;;;;;5133793;27;20463;-75
2023/03/24 08:08:07;;;;;;;35.87;33.87;;;13.50;99.90;;;;;;5134491;27;20456;-74
2023/03/24 08:10:35;;;;;;;35.20;33.10;;;13.40;99.90;;;;;;5133989;27;20455;-72
2023/03/24 08:13:02;;;;;;;34.00;32.00;;;13.50;99.90;;;;;;5133822;27;20516;-75
2023/03/24 08:15:29;;;;;;;36.00;33.80;;;13.40;99.90;;;;;;5132026;27;20480;-75
2023/03/24 08:17:56;;;;;;;36.60;34.50;;;13.40;99.90;;;;;;5133041;27;20432;-75
2023/03/24 08:20:23;;;;;;;35.37;33.27;;;13.50;99.90;;;;;;5133046;27;20444;-73
2023/03/24 08:22:52;;;;;;;34.60;32.57;;;13.50;99.90;;;;;;5133373;27;20476;-75
2023/03/24 08:25:21;;;;;;;34.80;32.80;;;13.50;99.90;;;;;;5133327;27;20539;-75
2023/03/24 08:27:49;;;;;;;36.37;33.87;;;13.50;99.90;;;;;;5133456;27;20448;-77
2023/03/24 08:30:18;;;;;;;33.73;31.83;;;13.60;99.90;;;;;;5127821;27;20939;-76
2023/03/24 08:32:46;;;;;;;33.27;31.37;;;13.60;99.90;;;;;;5132307;27;20483;-74
2023/03/24 08:35:14;;;;;;;33.40;31.40;;;13.50;99.90;;;;;;5132136;27;20845;-76
2023/03/24 08:37:42;;;;;;;34.03;32.23;;;13.60;99.90;;;;;;5133127;27;20440;-76
2023/03/24 08:40:13;;;;;;;34.03;32.13;;;13.60;99.90;;;;;;5132569;27;20509;-76
2023/03/24 08:42:40;;;;;;;31.90;30.20;;;13.60;99.90;;;;;;5132313;27;20455;-75
2023/03/24 08:45:12;;;;;;;31.10;29.50;;;13.60;99.90;;;;;;5132400;27;20473;-75
2023/03/24 08:47:40;;;;;;;30.50;28.90;;;13.70;99.90;;;;;;5111807;28;20499;-74
2023/03/24 08:50:08;;;;;;;30.30;28.80;;;13.70;99.90;;;;;;5123054;27;20598;-75
2023/03/24 08:52:35;;;;;;;30.73;29.03;;;13.70;99.90;;;;;;5131774;27;20464;-74
2023/03/24 08:55:02;;;;;;;29.23;27.73;;;13.70;99.90;;;;;;5131967;27;20444;-75
2023/03/24 08:57:31;;;;;;;27.00;25.70;;;13.80;99.90;;;;;;5132800;27;21009;-75
2023/03/24 08:59:57;;;;;;;25.80;24.70;;;14.00;99.90;;;;;;5131945;27;20453;-74
2023/03/24 09:02:26;;;;;;;25.13;24.00;;;14.10;99.90;;;;;;5132317;27;20481;-74
2023/03/24 09:04:54;;;;;;;23.97;22.73;;;14.20;99.90;;;;;;5131997;27;20448;-75
2023/03/24 09:07:21;;;;;;;22.27;21.00;;;14.40;99.90;;;;;;5131738;27;20530;-75
2023/03/24 09:09:48;;;;;;;20.40;19.40;;;14.50;99.90;;;;;;5131656;27;20452;-75
2023/03/24 09:12:15;;;;;;;19.10;18.33;;;14.70;99.90;;;;;;5131898;27;20580;-75
2023/03/24 09:14:41;;;;;;;18.63;17.77;;;14.80;99.90;;;;;;5131939;27;20456;-75
2023/03/24 09:17:08;;;;;;;16.53;15.83;;;14.90;99.90;;;;;;5131759;27;20492;-76
2023/03/24 09:19:36;;;;;;;16.43;15.63;;;14.90;99.90;;;;;;5131561;27;20445;-76
2023/03/24 09:22:03;;;;;;;15.10;14.40;;;14.90;99.90;;;;;;5131871;27;20463;-76
2023/03/24 09:24:30;;;;;;;16.70;15.70;;;15.00;99.90;;;;;;5132015;27;20468;-75
2023/03/24 09:26:56;;;;;;;15.67;15.00;;;15.10;99.90;;;;;;5131907;27;20824;-76
2023/03/24 09:29:23;;;;;;;15.67;14.93;;;15.10;99.90;;;;;;5132703;27;20452;-76
2023/03/24 09:31:52;;;;;;;15.37;14.67;;;15.40;99.90;;;;;;5131754;27;20472;-76
2023/03/24 09:34:19;;;;;;;15.87;15.17;;;15.50;99.90;;;;;;5131803;27;20953;-75
2023/03/24 09:36:47;;;;;;;15.30;14.63;;;15.80;99.90;;;;;;5131646;27;20469;-75
2023/03/24 09:39:14;;;;;;;15.00;14.20;;;15.90;99.90;;;;;;5131451;27;20505;-74
2023/03/24 09:41:44;;;;;;;15.37;14.60;;;15.90;99.90;;;;;;5131501;27;20480;-74
2023/03/24 09:44:21;;;;;;;14.53;13.93;;;15.90;99.90;;;;;;5131232;27;20444;-74
2023/03/24 09:46:50;;;;;;;14.47;13.97;;;15.90;99.90;;;;;;5131410;27;20500;-73
2023/03/24 09:49:24;;;;;;;13.80;13.20;;;16.10;99.90;;;;;;5131539;27;20444;-73
2023/03/24 09:51:55;;;;;;;15.30;14.50;;;16.30;99.90;;;;;;5131451;27;20452;-72
2023/03/24 09:54:28;;;;;;;15.33;14.60;;;16.60;99.90;;;;;;5131623;27;20448;-73
2023/03/24 09:56:57;;;;;;;14.70;14.00;;;16.60;99.90;;;;;;5131209;27;20484;-73
2023/03/24 09:59:32;;;;;;;14.80;14.23;;;16.50;99.90;;;;;;5131389;27;20448;-72
2023/03/24 10:01:59;;;;;;;15.10;14.37;;;16.60;99.90;;;;;;5131193;27;20452;-73
2023/03/24 10:04:28;;;;;;;14.63;14.03;;;16.60;99.90;;;;;;5131194;27;20444;-73
2023/03/24 10:07:01;;;;;;;13.00;12.50;;;16.80;99.90;;;;;;5131292;27;20441;-74
2023/03/24 10:09:30;;;;;;;13.77;13.07;;;17.10;99.90;;;;;;5131110;27;20445;-73
2023/03/24 10:12:17;;;;;;;13.40;12.67;;;17.30;99.90;;;;;;5131221;27;20514;-73
2023/03/24 10:14:52;;;;;;;12.90;12.40;;;17.70;99.90;;;;;;5131314;27;20665;-73
2023/03/24 10:17:28;;;;;;;12.80;12.30;;;18.30;99.90;;;;;;5131532;27;20485;-73
2023/03/24 10:20:01;;;;;;;12.47;12.00;;;18.50;99.90;;;;;;5131266;27;20487;-72
2023/03/24 10:22:34;;;;;;;12.73;12.23;;;18.60;99.90;;;;;;5131165;27;20448;-73
2023/03/24 10:25:11;;;;;;;12.60;12.10;;;18.50;99.90;;;;;;5130750;27;20497;-73
2023/03/24 10:27:42;;;;;;;12.70;12.20;;;18.20;99.90;;;;;;5131337;27;20832;-72
2023/03/24 10:30:16;;;;;;;12.77;12.17;;;17.90;99.90;;;;;;5130779;27;20497;-73
2023/03/24 10:32:44;;;;;;;12.30;11.80;;;18.10;99.90;;;;;;5130568;27;20472;-73
2023/03/24 10:35:18;;;;;;;12.30;11.80;;;18.10;99.90;;;;;;5130984;27;20501;-74
2023/03/24 10:37:46;;;;;;;12.13;11.73;;;18.20;99.90;;;;;;5130432;27;20666;-73
2023/03/24 10:40:17;;;;;;;11.73;11.23;;;18.10;99.90;;;;;;5128209;27;20868;-73
2023/03/24 10:42:45;;;;;;;13.37;12.87;;;18.10;99.90;;;;;;5130427;27;20452;-72
2023/03/24 10:45:13;;;;;;;11.80;11.33;;;18.10;99.90;;;;;;5130858;27;20505;-73
2023/03/24 10:47:41;;;;;;;12.30;11.90;;;18.00;99.90;;;;;;5130535;27;20947;-74
2023/03/24 10:50:09;;;;;;;12.07;11.67;;;17.70;99.90;;;;;;5125922;27;20448;-73
2023/03/24 10:52:40;;;;;;;11.43;11.00;;;17.80;99.90;;;;;;5130326;27;20508;-74
2023/03/24 10:55:16;;;;;;;11.47;11.00;;;17.90;99.90;;;;;;5130770;27;20512;-73
2023/03/24 10:57:44;;;;;;;11.70;11.30;;;18.10;99.90;;;;;;5131110;27;20529;-74
2023/03/24 11:00:21;;;;;;;11.70;11.30;;;18.20;99.90;;;;;;5130752;27;20452;-74
2023/03/24 11:02:55;;;;;;;11.70;11.30;;;18.30;99.90;;;;;;5130240;27;20455;-75
2023/03/24 11:05:28;;;;;;;12.20;11.70;;;18.60;99.90;;;;;;5133362;27;20452;-74
2023/03/24 11:07:58;;;;;;;12.70;12.30;;;18.80;99.90;;;;;;5134278;27;20476;-74
2023/03/24 11:10:27;;;;;;;11.13;10.70;;;18.60;99.90;;;;;;5134600;27;20452;-74
2023/03/24 11:13:01;;;;;;;12.50;12.10;;;18.70;99.90;;;;;;5134661;27;20801;-74
2023/03/24 11:15:29;;;;;;;11.90;11.50;;;18.80;99.90;;;;;;5134603;27;20444;-75
2023/03/24 11:17:58;;;;;;;12.10;11.70;;;18.70;99.90;;;;;;5134248;27;20487;-74
2023/03/24 11:20:28;;;;;;;12.40;11.90;;;19.10;99.90;;;;;;5134213;27;20444;-75
2023/03/24 11:22:58;;;;;;;12.50;11.70;;;19.60;99.90;;;;;;5134336;27;20506;-74
2023/03/24 11:25:32;;;;;;;12.13;11.73;;;20.50;99.90;;;;;;5134838;27;20448;-75
2023/03/24 11:28:01;;;;;;;12.47;12.07;;;20.30;98.80;;;;;;5134492;27;20449;-75
2023/03/24 11:30:34;;;;;;;11.50;11.10;;;20.20;99.70;;;;;;5134716;27;20448;-75
2023/03/24 11:33:03;;;;;;;11.90;11.50;;;20.20;98.90;;;;;;5134454;27;20476;-75
2023/03/24 11:35:31;;;;;;;12.10;11.60;;;20.30;98.60;;;;;;5134654;27;20931;-76
2023/03/24 11:38:05;;;;;;;11.67;11.27;;;20.10;99.20;;;;;;5134943;27;20476;-74
2023/03/24 11:40:34;;;;;;;11.73;11.33;;;20.40;97.70;;;;;;5135804;27;20432;-75
2023/03/24 11:43:03;;;;;;;11.27;10.87;;;20.10;97.90;;;;;;5136431;27;20452;-75
2023/03/24 11:45:36;;;;;;;11.90;11.33;;;19.80;98.20;;;;;;5134277;27;20517;-74
2023/03/24 11:48:12;;;;;;;12.00;11.60;;;19.50;98.70;;;;;;5134022;27;21076;-74
2023/03/24 11:50:39;;;;;;;11.20;10.80;;;19.40;99.50;;;;;;5133826;27;20565;-74
2023/03/24 11:53:13;;;;;;;11.73;11.33;;;19.00;99.90;;;;;;5133828;27;20493;-74
2023/03/24 11:55:49;;;;;;;11.17;10.87;;;18.90;99.70;;;;;;5133988;27;20517;-75
2023/03/24 11:58:23;;;;;;;11.43;10.93;;;18.70;99.90;;;;;;5133780;27;20483;-76
2023/03/24 12:00:54;;;;;;;9.87;9.57;;;18.70;99.90;;;;;;5134037;27;20475;-76
2023/03/24 12:03:53;;;;;;;9.70;9.40;;;18.50;99.90;;;;;;5133868;27;20869;-76
2023/03/24 12:06:35;;;;;;;9.77;9.47;;;18.50;99.60;;;;;;5133606;27;20448;-75
2023/03/24 12:09:14;;;;;;;9.70;9.40;;;18.40;99.80;;;;;;5133617;27;20444;-75
2023/03/24 12:12:00;;;;;;;9.70;9.40;;;18.50;99.50;;;;;;5133359;27;20469;-74
2023/03/24 12:14:36;;;;;;;10.37;10.07;;;18.40;98.90;;;;;;5131555;27;20444;-76
2023/03/24 12:17:09;;;;;;;10.83;10.43;;;18.40;98.80;;;;;;5133297;27;20479;-76
2023/03/24 12:20:08;;;;;;;10.30;10.00;;;18.80;98.50;;;;;;5132758;27;20448;-76
2023/03/24 12:22:49;;;;;;;10.90;10.60;;;18.60;97.90;;;;;;5132819;27;20970;-76
2023/03/24 12:25:39;;;;;;;11.10;10.80;;;18.60;98.00;;;;;;5130585;27;20444;-76
2023/03/24 12:28:21;;;;;;;11.30;11.00;;;18.80;97.30;;;;;;5133138;27;20535;-77
2023/03/24 12:30:59;;;;;;;10.90;10.60;;;18.50;97.60;;;;;;5112605;28;20453;-76
2023/03/24 12:33:38;;;;;;;11.13;10.73;;;18.60;96.80;;;;;;5120579;27;20475;-75
2023/03/24 12:36:20;;;;;;;10.50;10.20;;;18.40;97.20;;;;;;5132868;27;20495;-76
2023/03/24 12:39:00;;;;;;;9.97;9.67;;;18.40;97.60;;;;;;5132298;27;20476;-76
2023/03/24 12:41:43;;;;;;;10.90;10.40;;;18.50;97.60;;;;;;5132422;27;20436;-76
2023/03/24 12:44:22;;;;;;;10.63;10.33;;;18.40;97.60;;;;;;5132534;27;20448;-76
2023/03/24 12:46:56;;;;;;;11.00;10.70;;;18.60;97.80;;;;;;5131986;27;20440;-75